Time;durP1;ratioP1;P1;durP2;ratioP2;P2;SDS_P1;SDS_P2;PMS_P1;PMS_P2;Temp;Humidity;BMP_temperature;BMP_pressure;BME280_temperature;BME280_humidity;BME280_pressure;Samples;Min_cycle;Max_cycle;Signal;HPM_P1;HPM_P2
2021/07/19 00:01:53;;;;;;;5.45;3.28;;;;;;;;;;4687189;30;20460;-83
2021/07/19 00:04:18;;;;;;;6.50;3.20;;;;;;;;;;4690944;30;20069;-84
2021/07/19 00:06:44;;;;;;;5.15;3.08;;;;;;;;;;4667395;30;20480;-84
2021/07/19 00:09:09;;;;;;;4.97;2.65;;;;;;;;;;4655050;30;20037;-84
2021/07/19 00:11:37;;;;;;;5.13;3.20;;;;;;;;;;4662735;30;20041;-84
2021/07/19 00:14:03;;;;;;;6.00;3.20;;;;;;;;;;4691381;30;20471;-84
2021/07/19 00:16:29;;;;;;;6.80;3.47;;;;;;;;;;4669622;30;20200;-84
2021/07/19 00:18:54;;;;;;;4.75;3.00;;;;;;;;;;4677682;30;20037;-84
2021/07/19 00:21:19;;;;;;;5.05;3.13;;;;;;;;;;4667633;30;20042;-84
2021/07/19 00:23:45;;;;;;;5.05;3.45;;;;;;;;;;4654616;30;20492;-84
2021/07/19 00:26:10;;;;;;;6.45;3.20;;;;;;;;;;4679266;30;20041;-84
2021/07/19 00:28:36;;;;;;;6.10;3.28;;;;;;;;;;4673639;30;20033;-84
2021/07/19 00:31:01;;;;;;;6.13;3.15;;;;;;;;;;4670237;30;20064;-84
2021/07/19 00:33:27;;;;;;;6.15;3.50;;;;;;;;;;4671442;30;20069;-84
2021/07/19 00:35:52;;;;;;;4.72;2.80;;;;;;;;;;4685420;30;20116;-84
2021/07/19 00:38:18;;;;;;;3.83;2.90;;;;;;;;;;4679061;30;20535;-84
2021/07/19 00:40:43;;;;;;;4.70;3.13;;;;;;;;;;4676086;30;20100;-84
2021/07/19 00:43:09;;;;;;;5.50;3.15;;;;;;;;;;4676613;30;20140;-84
2021/07/19 00:45:35;;;;;;;5.43;3.08;;;;;;;;;;4674748;30;20042;-84
2021/07/19 00:48:03;;;;;;;8.52;3.50;;;;;;;;;;4680907;30;20071;-84
2021/07/19 00:50:32;;;;;;;3.92;3.03;;;;;;;;;;4679845;30;20124;-84
2021/07/19 00:52:59;;;;;;;4.32;3.10;;;;;;;;;;4684767;30;20446;-84
2021/07/19 00:55:32;;;;;;;6.72;3.63;;;;;;;;;;4687127;30;20116;-84
2021/07/19 00:58:00;;;;;;;5.90;3.15;;;;;;;;;;4695335;30;20034;-84
2021/07/19 01:00:27;;;;;;;5.30;3.20;;;;;;;;;;4672428;30;20038;-84
2021/07/19 01:02:54;;;;;;;6.05;3.10;;;;;;;;;;4672852;30;20092;-84
2021/07/19 01:05:19;;;;;;;5.78;3.70;;;;;;;;;;4668428;30;20038;-84
2021/07/19 01:07:47;;;;;;;5.43;3.15;;;;;;;;;;4697771;30;20120;-84
2021/07/19 01:10:17;;;;;;;4.50;3.10;;;;;;;;;;4671547;30;20034;-84
2021/07/19 01:12:45;;;;;;;5.72;3.88;;;;;;;;;;4674465;30;20480;-84
2021/07/19 01:15:11;;;;;;;5.38;3.42;;;;;;;;;;4682514;30;20136;-84
2021/07/19 01:17:37;;;;;;;5.70;3.15;;;;;;;;;;4692097;30;20133;-84
2021/07/19 01:20:04;;;;;;;6.43;3.83;;;;;;;;;;4680637;30;20582;-84
2021/07/19 01:22:54;;;;;;;5.35;3.42;;;;;;;;;;4680940;30;20071;-84
2021/07/19 01:25:57;;;;;;;4.88;3.38;;;;;;;;;;4683142;30;20456;-84
2021/07/19 01:28:28;;;;;;;4.40;3.20;;;;;;;;;;4686140;30;20033;-84
2021/07/19 01:30:57;;;;;;;4.95;3.33;;;;;;;;;;4678445;30;20030;-84
2021/07/19 01:33:25;;;;;;;7.47;3.88;;;;;;;;;;4691804;30;20480;-84
2021/07/19 01:35:52;;;;;;;6.53;3.67;;;;;;;;;;4680858;30;20450;-84
2021/07/19 01:38:18;;;;;;;5.72;3.72;;;;;;;;;;4668277;30;20042;-84
2021/07/19 01:40:44;;;;;;;7.50;3.92;;;;;;;;;;4686734;30;20061;-84
2021/07/19 01:43:12;;;;;;;7.15;4.10;;;;;;;;;;4680306;30;20029;-84
2021/07/19 01:45:38;;;;;;;7.20;4.18;;;;;;;;;;4665940;30;20747;-84
2021/07/19 01:48:06;;;;;;;6.28;3.85;;;;;;;;;;4675133;30;20057;-84
2021/07/19 01:50:33;;;;;;;5.88;4.10;;;;;;;;;;4680826;30;20030;-85
2021/07/19 01:52:59;;;;;;;6.28;4.13;;;;;;;;;;4678989;30;20095;-85
2021/07/19 01:55:25;;;;;;;6.70;3.83;;;;;;;;;;4684206;30;20061;-84
2021/07/19 01:57:51;;;;;;;6.30;3.67;;;;;;;;;;4663260;30;20037;-84
2021/07/19 02:00:17;;;;;;;6.80;4.07;;;;;;;;;;4667649;30;20492;-84
2021/07/19 02:02:45;;;;;;;5.65;3.65;;;;;;;;;;4679732;30;20057;-84
2021/07/19 02:05:12;;;;;;;5.63;3.72;;;;;;;;;;4696696;30;20041;-84
2021/07/19 02:07:39;;;;;;;6.00;3.97;;;;;;;;;;4663045;30;20033;-84
2021/07/19 02:10:07;;;;;;;5.38;3.65;;;;;;;;;;4676295;30;20437;-84
2021/07/19 02:12:36;;;;;;;5.63;3.65;;;;;;;;;;4663227;30;20046;-84
2021/07/19 02:15:09;;;;;;;5.97;3.65;;;;;;;;;;4675066;30;20531;-84
2021/07/19 02:17:36;;;;;;;6.75;4.20;;;;;;;;;;4668751;30;20104;-84
2021/07/19 02:20:06;;;;;;;5.97;3.85;;;;;;;;;;4678555;30;20045;-84
2021/07/19 02:22:32;;;;;;;5.88;3.92;;;;;;;;;;4690498;30;20044;-84
2021/07/19 02:24:57;;;;;;;7.15;3.95;;;;;;;;;;4677444;30;20038;-84
2021/07/19 02:27:24;;;;;;;5.25;3.90;;;;;;;;;;4676255;30;20573;-84
2021/07/19 02:29:49;;;;;;;6.40;3.70;;;;;;;;;;4684782;30;20045;-84
2021/07/19 02:32:16;;;;;;;6.97;4.10;;;;;;;;;;4670155;30;20121;-84
2021/07/19 02:34:43;;;;;;;5.68;3.78;;;;;;;;;;4664377;30;20038;-84
2021/07/19 02:37:09;;;;;;;6.60;4.07;;;;;;;;;;4669059;30;20038;-84
2021/07/19 02:39:36;;;;;;;5.63;3.55;;;;;;;;;;4684924;30;20057;-84
2021/07/19 02:42:02;;;;;;;5.22;3.75;;;;;;;;;;4663576;30;20042;-84
2021/07/19 02:44:29;;;;;;;6.10;4.15;;;;;;;;;;4687292;30;20380;-84
2021/07/19 02:46:56;;;;;;;8.52;4.28;;;;;;;;;;4670459;30;20042;-84
2021/07/19 02:49:22;;;;;;;6.00;4.00;;;;;;;;;;4678266;30;20037;-84
2021/07/19 02:51:51;;;;;;;5.32;4.13;;;;;;;;;;4673701;30;20510;-84
2021/07/19 02:54:18;;;;;;;7.00;4.38;;;;;;;;;;4671946;30;20061;-84
2021/07/19 02:56:45;;;;;;;6.28;4.55;;;;;;;;;;4676723;30;20128;-84
2021/07/19 02:59:11;;;;;;;7.13;4.40;;;;;;;;;;4689836;30;20034;-84
2021/07/19 03:01:38;;;;;;;6.00;4.22;;;;;;;;;;4681999;30;20069;-84
2021/07/19 03:04:04;;;;;;;6.57;4.63;;;;;;;;;;4692740;30;20068;-84
2021/07/19 03:06:39;;;;;;;8.05;4.20;;;;;;;;;;4667887;30;20048;-84
2021/07/19 03:09:06;;;;;;;6.05;4.45;;;;;;;;;;4674748;30;20496;-84
2021/07/19 03:11:36;;;;;;;6.80;4.57;;;;;;;;;;4670400;30;20146;-84
2021/07/19 03:14:04;;;;;;;6.50;4.72;;;;;;;;;;4687733;30;20036;-84
2021/07/19 03:16:29;;;;;;;9.15;5.32;;;;;;;;;;4699244;30;20044;-84
2021/07/19 03:18:59;;;;;;;7.05;4.97;;;;;;;;;;4667328;30;20478;-84
2021/07/19 03:21:26;;;;;;;7.15;5.05;;;;;;;;;;4676629;30;20144;-84
2021/07/19 03:23:53;;;;;;;9.80;5.00;;;;;;;;;;4688721;30;20040;-84
2021/07/19 03:26:21;;;;;;;10.18;4.80;;;;;;;;;;4666770;30;20042;-84
2021/07/19 03:28:47;;;;;;;8.13;5.38;;;;;;;;;;4687423;30;20038;-84
2021/07/19 03:31:14;;;;;;;7.18;4.70;;;;;;;;;;4686495;30;20034;-84
2021/07/19 03:33:43;;;;;;;7.90;4.65;;;;;;;;;;4669497;30;20095;-84
2021/07/19 03:36:12;;;;;;;7.65;4.53;;;;;;;;;;4670342;30;20034;-84
2021/07/19 03:38:37;;;;;;;8.68;4.85;;;;;;;;;;4680217;30;20682;-84
2021/07/19 03:41:05;;;;;;;7.10;4.45;;;;;;;;;;4694998;30;20106;-84
2021/07/19 03:43:32;;;;;;;8.63;4.82;;;;;;;;;;4699399;30;20411;-84
2021/07/19 03:45:57;;;;;;;9.57;5.47;;;;;;;;;;4669654;30;20030;-84
2021/07/19 03:48:23;;;;;;;8.30;5.68;;;;;;;;;;4686596;30;20404;-84
2021/07/19 03:50:51;;;;;;;8.95;5.65;;;;;;;;;;4671625;30;20522;-84
2021/07/19 03:53:17;;;;;;;8.05;4.95;;;;;;;;;;4676094;30;20108;-84
2021/07/19 03:55:44;;;;;;;7.68;4.95;;;;;;;;;;4672082;30;20042;-84
2021/07/19 03:58:11;;;;;;;8.65;5.43;;;;;;;;;;4670597;30;20044;-84
2021/07/19 04:00:37;;;;;;;9.52;5.43;;;;;;;;;;4680582;30;20033;-84
2021/07/19 04:03:16;;;;;;;8.23;5.18;;;;;;;;;;4681116;30;20042;-84
2021/07/19 04:05:44;;;;;;;8.05;5.22;;;;;;;;;;4677460;30;20030;-84
2021/07/19 04:08:10;;;;;;;8.00;5.43;;;;;;;;;;4675508;30;20406;-84
2021/07/19 04:10:37;;;;;;;8.48;5.50;;;;;;;;;;4658197;30;20050;-84
2021/07/19 04:13:06;;;;;;;7.95;5.35;;;;;;;;;;4680326;30;20034;-84
2021/07/19 04:15:33;;;;;;;8.60;5.95;;;;;;;;;;4655853;30;20070;-84
2021/07/19 04:17:59;;;;;;;8.55;5.53;;;;;;;;;;4686552;30;20072;-84
2021/07/19 04:20:25;;;;;;;8.05;5.47;;;;;;;;;;4671195;30;20510;-84
2021/07/19 04:22:52;;;;;;;8.00;5.32;;;;;;;;;;4663027;30;20068;-84
2021/07/19 04:25:17;;;;;;;6.93;4.90;;;;;;;;;;4681878;30;20040;-84
2021/07/19 04:27:43;;;;;;;9.43;5.60;;;;;;;;;;4669313;30;20038;-84
2021/07/19 04:30:10;;;;;;;9.55;5.80;;;;;;;;;;4690072;30;20025;-84
2021/07/19 04:32:47;;;;;;;7.25;5.32;;;;;;;;;;4675639;30;20507;-84
2021/07/19 04:35:20;;;;;;;11.02;6.03;;;;;;;;;;4679446;30;20041;-84
2021/07/19 04:37:50;;;;;;;8.98;5.75;;;;;;;;;;4694858;30;20029;-84
2021/07/19 04:40:15;;;;;;;9.48;5.80;;;;;;;;;;4699775;30;20046;-84
2021/07/19 04:42:41;;;;;;;8.88;6.20;;;;;;;;;;4671171;30;20044;-84
2021/07/19 04:45:07;;;;;;;7.65;5.40;;;;;;;;;;4679974;30;20479;-85
2021/07/19 04:47:33;;;;;;;10.63;6.47;;;;;;;;;;4661368;30;20040;-84
2021/07/19 04:49:58;;;;;;;8.55;5.53;;;;;;;;;;4667249;30;20042;-84
2021/07/19 04:52:24;;;;;;;7.13;5.75;;;;;;;;;;4670647;30;20396;-84
2021/07/19 04:54:53;;;;;;;10.20;5.80;;;;;;;;;;4668187;30;20519;-84
2021/07/19 04:57:20;;;;;;;8.10;6.05;;;;;;;;;;4673691;30;20030;-84
2021/07/19 04:59:49;;;;;;;9.45;5.85;;;;;;;;;;4681108;30;20073;-84
2021/07/19 05:02:18;;;;;;;8.40;6.15;;;;;;;;;;4679147;30;20466;-84
2021/07/19 05:04:45;;;;;;;8.57;5.63;;;;;;;;;;4668806;30;20030;-84
2021/07/19 05:07:12;;;;;;;7.80;5.53;;;;;;;;;;4668812;30;20038;-84
2021/07/19 05:09:41;;;;;;;7.47;5.57;;;;;;;;;;4699976;30;20439;-84
2021/07/19 05:12:12;;;;;;;8.98;6.57;;;;;;;;;;4668777;30;21519;-84
2021/07/19 05:14:39;;;;;;;8.85;6.82;;;;;;;;;;4695740;30;20099;-84
2021/07/19 05:17:08;;;;;;;9.52;5.90;;;;;;;;;;4688730;30;20042;-84
2021/07/19 05:19:36;;;;;;;8.45;5.90;;;;;;;;;;4673317;30;20099;-84
2021/07/19 05:22:02;;;;;;;9.68;6.18;;;;;;;;;;4669676;30;20061;-85
2021/07/19 05:24:31;;;;;;;8.95;5.78;;;;;;;;;;4673574;30;20072;-84
2021/07/19 05:26:56;;;;;;;8.32;5.72;;;;;;;;;;4692867;30;20061;-84
2021/07/19 05:29:22;;;;;;;9.02;6.13;;;;;;;;;;4668616;30;20072;-84
2021/07/19 05:31:47;;;;;;;9.27;6.55;;;;;;;;;;4689978;30;20034;-84
2021/07/19 05:34:13;;;;;;;13.57;5.93;;;;;;;;;;4665095;30;20037;-84
2021/07/19 05:36:39;;;;;;;9.15;5.95;;;;;;;;;;4668736;30;20497;-84
2021/07/19 05:39:05;;;;;;;8.55;5.90;;;;;;;;;;4670976;30;20104;-84
2021/07/19 05:41:30;;;;;;;10.20;6.50;;;;;;;;;;4669836;30;20052;-84
2021/07/19 05:43:56;;;;;;;9.68;6.03;;;;;;;;;;4667637;30;20034;-84
2021/07/19 05:46:21;;;;;;;10.52;6.82;;;;;;;;;;4662440;30;20423;-84
2021/07/19 05:48:47;;;;;;;11.10;7.10;;;;;;;;;;4662131;30;20070;-84
2021/07/19 05:51:12;;;;;;;10.63;7.07;;;;;;;;;;4663797;30;20045;-84
2021/07/19 05:53:38;;;;;;;11.38;7.07;;;;;;;;;;4666418;30;20045;-84
2021/07/19 05:56:03;;;;;;;8.80;6.32;;;;;;;;;;4665491;30;20038;-84
2021/07/19 05:58:31;;;;;;;10.52;6.35;;;;;;;;;;4687564;30;20046;-84
2021/07/19 06:00:56;;;;;;;10.02;6.88;;;;;;;;;;4675280;30;20038;-84
2021/07/19 06:03:23;;;;;;;11.13;7.20;;;;;;;;;;4698972;30;20049;-84
2021/07/19 06:05:49;;;;;;;8.85;7.00;;;;;;;;;;4698197;30;20042;-83
2021/07/19 06:08:14;;;;;;;10.25;6.80;;;;;;;;;;4659080;30;20405;-84
2021/07/19 06:10:40;;;;;;;10.27;6.20;;;;;;;;;;4672731;30;20039;-84
2021/07/19 06:13:05;;;;;;;9.40;6.05;;;;;;;;;;4657207;30;20129;-84
2021/07/19 06:15:32;;;;;;;9.48;5.97;;;;;;;;;;4681742;30;20065;-84
2021/07/19 06:17:58;;;;;;;9.90;6.88;;;;;;;;;;4656181;30;20042;-84
2021/07/19 06:20:30;;;;;;;11.80;7.57;;;;;;;;;;4679792;30;20443;-84
2021/07/19 06:23:00;;;;;;;10.63;7.20;;;;;;;;;;4663886;30;20495;-84
2021/07/19 06:25:28;;;;;;;12.07;7.43;;;;;;;;;;4669125;30;20041;-84
2021/07/19 06:27:54;;;;;;;11.38;6.65;;;;;;;;;;4669219;30;20044;-83
2021/07/19 06:30:19;;;;;;;10.93;6.97;;;;;;;;;;4688099;30;20026;-83
2021/07/19 06:32:45;;;;;;;11.50;6.70;;;;;;;;;;4673949;30;20120;-83
2021/07/19 06:35:11;;;;;;;9.15;6.50;;;;;;;;;;4678746;30;20045;-83
2021/07/19 06:37:37;;;;;;;8.88;6.53;;;;;;;;;;4697849;30;20048;-83
2021/07/19 06:40:05;;;;;;;12.38;7.40;;;;;;;;;;4684013;30;20046;-83
2021/07/19 06:42:31;;;;;;;7.95;6.25;;;;;;;;;;4693126;30;20100;-83
2021/07/19 06:45:02;;;;;;;10.70;6.32;;;;;;;;;;4676092;30;20046;-83
2021/07/19 06:47:28;;;;;;;7.75;5.20;;;;;;;;;;4662846;30;20038;-83
2021/07/19 06:49:55;;;;;;;8.30;5.30;;;;;;;;;;4684833;30;20038;-83
2021/07/19 06:52:21;;;;;;;8.70;5.30;;;;;;;;;;4679707;30;20041;-83
2021/07/19 06:54:46;;;;;;;9.73;5.63;;;;;;;;;;4672450;30;20484;-83
2021/07/19 06:57:12;;;;;;;8.98;5.55;;;;;;;;;;4678289;30;20040;-83
2021/07/19 06:59:37;;;;;;;8.50;5.57;;;;;;;;;;4666272;30;20120;-83
2021/07/19 07:02:03;;;;;;;10.23;5.85;;;;;;;;;;4681248;30;20045;-83
2021/07/19 07:04:28;;;;;;;8.80;6.10;;;;;;;;;;4701735;30;20080;-83
2021/07/19 07:06:54;;;;;;;9.43;5.70;;;;;;;;;;4679585;30;20038;-83
2021/07/19 07:09:20;;;;;;;8.77;6.00;;;;;;;;;;4675403;30;20037;-83
2021/07/19 07:11:45;;;;;;;14.13;6.35;;;;;;;;;;4692958;30;20037;-83
2021/07/19 07:14:11;;;;;;;9.10;6.05;;;;;;;;;;4687582;30;20061;-83
2021/07/19 07:16:36;;;;;;;10.40;6.45;;;;;;;;;;4712559;30;20123;-83
2021/07/19 07:19:02;;;;;;;9.77;6.57;;;;;;;;;;4672360;30;20038;-83
2021/07/19 07:21:30;;;;;;;9.52;6.07;;;;;;;;;;4679315;30;20049;-82
2021/07/19 07:23:55;;;;;;;10.93;6.93;;;;;;;;;;4673735;30;20038;-83
2021/07/19 07:26:20;;;;;;;10.43;7.13;;;;;;;;;;4692967;30;20480;-83
2021/07/19 07:28:46;;;;;;;10.07;6.68;;;;;;;;;;4664603;30;20071;-82
2021/07/19 07:31:12;;;;;;;9.85;6.63;;;;;;;;;;4670877;30;20094;-83
2021/07/19 07:33:38;;;;;;;11.18;7.20;;;;;;;;;;4699687;30;20046;-83
2021/07/19 07:36:05;;;;;;;9.60;6.72;;;;;;;;;;4692625;30;20422;-83
2021/07/19 07:38:30;;;;;;;11.13;8.05;;;;;;;;;;4679892;30;20053;-83
2021/07/19 07:40:56;;;;;;;10.68;7.43;;;;;;;;;;4686816;30;20396;-83
2021/07/19 07:43:21;;;;;;;10.45;7.40;;;;;;;;;;4705911;30;20068;-83
2021/07/19 07:45:49;;;;;;;10.60;7.25;;;;;;;;;;4693527;30;20077;-83
2021/07/19 07:48:14;;;;;;;13.18;7.20;;;;;;;;;;4674998;30;20056;-84
2021/07/19 07:50:40;;;;;;;12.20;7.45;;;;;;;;;;4676512;30;20030;-83
2021/07/19 07:53:06;;;;;;;9.63;6.68;;;;;;;;;;4694973;30;20168;-84
2021/07/19 07:55:31;;;;;;;10.68;7.03;;;;;;;;;;4682591;30;20512;-83
2021/07/19 07:57:57;;;;;;;11.57;7.30;;;;;;;;;;4674195;30;20038;-83
2021/07/19 08:00:22;;;;;;;13.27;7.65;;;;;;;;;;4673472;30;20045;-83
2021/07/19 08:02:48;;;;;;;10.95;7.38;;;;;;;;;;4676795;30;20038;-83
2021/07/19 08:05:14;;;;;;;10.65;7.60;;;;;;;;;;4674667;30;20091;-83
2021/07/19 08:07:40;;;;;;;9.48;7.00;;;;;;;;;;4678035;30;20038;-83
2021/07/19 08:10:08;;;;;;;11.25;7.70;;;;;;;;;;4685292;30;20033;-83
2021/07/19 08:12:34;;;;;;;10.38;8.15;;;;;;;;;;4695192;30;20042;-83
2021/07/19 08:15:03;;;;;;;10.88;7.57;;;;;;;;;;4703094;30;20088;-83
2021/07/19 08:17:29;;;;;;;9.77;7.15;;;;;;;;;;4676732;30;20042;-83
2021/07/19 08:19:56;;;;;;;12.15;7.75;;;;;;;;;;4682824;30;20037;-83
2021/07/19 08:22:23;;;;;;;10.50;7.22;;;;;;;;;;4680038;30;20045;-83
2021/07/19 08:24:49;;;;;;;11.20;6.78;;;;;;;;;;4683424;30;20041;-83
2021/07/19 08:27:15;;;;;;;10.35;7.25;;;;;;;;;;4686369;30;20120;-83
2021/07/19 08:29:40;;;;;;;10.65;7.50;;;;;;;;;;4678690;30;20124;-83
2021/07/19 08:32:07;;;;;;;11.52;7.38;;;;;;;;;;4670269;30;20052;-83
2021/07/19 08:34:33;;;;;;;11.73;7.32;;;;;;;;;;4676551;30;20036;-83
2021/07/19 08:36:59;;;;;;;12.57;7.53;;;;;;;;;;4705778;30;20121;-83
2021/07/19 08:39:24;;;;;;;11.52;7.60;;;;;;;;;;4677377;30;20499;-82
2021/07/19 08:41:51;;;;;;;12.48;7.75;;;;;;;;;;4662597;30;20205;-83
2021/07/19 08:44:17;;;;;;;10.55;7.38;;;;;;;;;;4693543;30;20034;-83
2021/07/19 08:46:43;;;;;;;11.10;7.53;;;;;;;;;;4675724;30;20551;-83
2021/07/19 08:49:09;;;;;;;10.00;7.20;;;;;;;;;;4687703;30;20044;-83
2021/07/19 08:51:43;;;;;;;10.93;7.55;;;;;;;;;;4696202;30;20368;-83
2021/07/19 08:54:13;;;;;;;9.55;7.30;;;;;;;;;;4681394;30;20033;-83
2021/07/19 08:56:40;;;;;;;9.40;6.63;;;;;;;;;;4699410;30;20101;-83
2021/07/19 08:59:07;;;;;;;10.60;6.60;;;;;;;;;;4674816;30;20037;-83
2021/07/19 09:01:34;;;;;;;10.90;6.70;;;;;;;;;;4675938;30;20510;-83
2021/07/19 09:04:00;;;;;;;9.10;6.53;;;;;;;;;;4672250;30;20037;-83
2021/07/19 09:06:25;;;;;;;10.35;6.80;;;;;;;;;;4688968;30;20045;-83
2021/07/19 09:08:53;;;;;;;9.98;6.60;;;;;;;;;;4680289;30;20511;-83
2021/07/19 09:11:21;;;;;;;10.00;6.60;;;;;;;;;;4680784;30;20021;-82
2021/07/19 09:14:04;;;;;;;10.80;6.60;;;;;;;;;;4671152;30;20037;-83
2021/07/19 09:16:43;;;;;;;9.73;6.32;;;;;;;;;;4669284;30;20515;-83
2021/07/19 09:19:11;;;;;;;9.70;6.45;;;;;;;;;;4678132;30;20132;-83
2021/07/19 09:21:38;;;;;;;10.73;5.82;;;;;;;;;;4687883;30;20446;-83
2021/07/19 09:24:09;;;;;;;9.25;6.05;;;;;;;;;;4701787;30;20083;-83
2021/07/19 09:26:35;;;;;;;9.75;6.10;;;;;;;;;;4676192;30;20042;-83
2021/07/19 09:29:05;;;;;;;10.00;5.70;;;;;;;;;;4671605;30;20487;-83
2021/07/19 09:31:36;;;;;;;7.82;5.15;;;;;;;;;;4690889;30;20041;-83
2021/07/19 09:34:22;;;;;;;8.70;5.43;;;;;;;;;;4692844;30;20030;-83
2021/07/19 09:37:02;;;;;;;10.10;5.80;;;;;;;;;;4675150;30;20049;-83
2021/07/19 09:39:31;;;;;;;8.90;5.43;;;;;;;;;;4699158;30;20033;-82
2021/07/19 09:42:07;;;;;;;8.85;5.20;;;;;;;;;;4692411;30;20392;-83
2021/07/19 09:44:33;;;;;;;10.50;5.93;;;;;;;;;;4675763;30;20552;-83
2021/07/19 09:47:01;;;;;;;12.95;5.20;;;;;;;;;;4679613;30;20064;-83
2021/07/19 09:49:31;;;;;;;7.13;4.93;;;;;;;;;;4677364;30;20038;-82
2021/07/19 09:52:10;;;;;;;8.60;5.30;;;;;;;;;;4676740;30;20102;-82
2021/07/19 09:54:42;;;;;;;10.70;4.88;;;;;;;;;;4682473;30;20164;-82
2021/07/19 09:57:08;;;;;;;8.83;5.10;;;;;;;;;;4675926;30;20030;-82
2021/07/19 09:59:54;;;;;;;9.50;5.30;;;;;;;;;;4674056;30;22004;-82
2021/07/19 10:02:39;;;;;;;8.90;5.10;;;;;;;;;;4677035;30;20037;-82
2021/07/19 10:05:08;;;;;;;8.10;5.18;;;;;;;;;;4679607;30;20045;-82
2021/07/19 10:07:33;;;;;;;10.25;5.50;;;;;;;;;;4695075;30;20121;-82
2021/07/19 10:10:08;;;;;;;9.60;5.32;;;;;;;;;;4681857;30;20109;-82
2021/07/19 10:12:34;;;;;;;10.70;5.10;;;;;;;;;;4670017;30;20049;-82
2021/07/19 10:15:05;;;;;;;8.60;4.60;;;;;;;;;;4678501;30;20110;-82
2021/07/19 10:17:31;;;;;;;9.30;5.22;;;;;;;;;;4700464;30;20446;-82
2021/07/19 10:19:57;;;;;;;7.90;5.45;;;;;;;;;;4677692;30;20029;-82
2021/07/19 10:22:23;;;;;;;9.98;5.43;;;;;;;;;;4678040;30;20361;-82
2021/07/19 10:24:48;;;;;;;9.55;5.90;;;;;;;;;;4679280;30;20468;-82
2021/07/19 10:27:27;;;;;;;8.55;5.45;;;;;;;;;;4692124;30;20056;-82
2021/07/19 10:29:52;;;;;;;9.25;6.05;;;;;;;;;;4671642;30;20037;-83
2021/07/19 10:32:22;;;;;;;11.65;6.28;;;;;;;;;;4677965;30;20040;-82
2021/07/19 10:34:49;;;;;;;8.80;5.72;;;;;;;;;;4670069;30;20040;-82
2021/07/19 10:37:24;;;;;;;8.57;5.28;;;;;;;;;;4676252;30;20036;-82
2021/07/19 10:39:56;;;;;;;10.30;6.18;;;;;;;;;;4686054;30;20037;-82
2021/07/19 10:42:36;;;;;;;11.00;6.20;;;;;;;;;;4679927;30;20133;-82
2021/07/19 10:45:16;;;;;;;9.48;5.82;;;;;;;;;;4685836;30;20146;-82
2021/07/19 10:47:46;;;;;;;9.57;6.00;;;;;;;;;;4700374;30;20068;-82
2021/07/19 10:50:16;;;;;;;10.52;6.40;;;;;;;;;;4691000;30;20034;-82
2021/07/19 10:52:42;;;;;;;10.48;6.40;;;;;;;;;;4692575;30;20116;-82
2021/07/19 10:55:09;;;;;;;8.73;6.35;;;;;;;;;;4695993;30;20566;-82
2021/07/19 10:57:35;;;;;;;8.93;6.18;;;;;;;;;;4685776;30;20037;-82
2021/07/19 11:00:04;;;;;;;9.02;6.15;;;;;;;;;;4697092;30;20108;-82
2021/07/19 11:02:29;;;;;;;11.25;6.53;;;;;;;;;;4699534;30;20455;-82
2021/07/19 11:04:55;;;;;;;9.38;7.03;;;;;;;;;;4673128;30;20076;-83
2021/07/19 11:07:24;;;;;;;11.20;7.07;;;;;;;;;;4681663;30;20048;-82
2021/07/19 11:09:55;;;;;;;7.50;5.60;;;;;;;;;;4678779;30;20120;-83
2021/07/19 11:12:21;;;;;;;9.45;6.25;;;;;;;;;;4676284;30;20050;-83
2021/07/19 11:14:50;;;;;;;11.63;6.80;;;;;;;;;;4679887;30;20069;-82
2021/07/19 11:17:20;;;;;;;10.07;6.60;;;;;;;;;;4684501;30;20125;-83
2021/07/19 11:19:48;;;;;;;10.10;6.75;;;;;;;;;;4687732;30;20122;-83
2021/07/19 11:22:23;;;;;;;10.32;7.05;;;;;;;;;;4691827;30;20125;-82
2021/07/19 11:25:09;;;;;;;9.18;6.85;;;;;;;;;;4688241;30;20076;-82
2021/07/19 11:27:37;;;;;;;11.98;7.60;;;;;;;;;;4684852;30;20036;-82
2021/07/19 11:30:19;;;;;;;10.18;7.10;;;;;;;;;;4679541;30;20033;-83
2021/07/19 11:32:45;;;;;;;11.90;7.00;;;;;;;;;;4681919;30;20045;-83
2021/07/19 11:35:22;;;;;;;11.18;7.13;;;;;;;;;;4679853;30;20037;-83
2021/07/19 11:37:50;;;;;;;11.45;7.30;;;;;;;;;;4697807;30;20041;-83
2021/07/19 11:40:31;;;;;;;8.98;6.85;;;;;;;;;;4682615;30;20033;-83
2021/07/19 11:43:07;;;;;;;11.40;6.78;;;;;;;;;;4689601;30;20046;-83
2021/07/19 11:45:38;;;;;;;9.02;6.05;;;;;;;;;;4678381;30;20069;-83
2021/07/19 11:48:06;;;;;;;9.77;7.05;;;;;;;;;;4685537;30;20037;-83
2021/07/19 11:50:32;;;;;;;10.73;6.82;;;;;;;;;;4674981;30;20104;-83
2021/07/19 11:52:58;;;;;;;10.13;7.10;;;;;;;;;;4667288;30;20046;-83
2021/07/19 11:55:24;;;;;;;11.73;6.95;;;;;;;;;;4691032;30;20033;-83
2021/07/19 11:58:00;;;;;;;10.60;7.38;;;;;;;;;;4667715;30;20033;-83
2021/07/19 12:00:30;;;;;;;11.38;6.75;;;;;;;;;;4673509;30;20058;-83
2021/07/19 12:03:07;;;;;;;12.50;7.32;;;;;;;;;;4676834;30;20080;-83
2021/07/19 12:05:33;;;;;;;9.50;6.50;;;;;;;;;;4670251;30;20033;-83
2021/07/19 12:08:03;;;;;;;10.48;7.07;;;;;;;;;;4679042;30;20034;-83
2021/07/19 12:10:31;;;;;;;9.50;6.68;;;;;;;;;;4683593;30;20121;-83
2021/07/19 12:12:56;;;;;;;8.88;6.30;;;;;;;;;;4677127;30;20056;-83
2021/07/19 12:15:22;;;;;;;11.30;7.30;;;;;;;;;;4680206;30;20061;-83
2021/07/19 12:17:55;;;;;;;10.35;6.97;;;;;;;;;;4671106;30;20060;-83
2021/07/19 12:20:25;;;;;;;11.00;7.55;;;;;;;;;;4699401;30;20056;-83
2021/07/19 12:22:55;;;;;;;10.07;6.72;;;;;;;;;;4689465;30;20040;-83
2021/07/19 12:25:20;;;;;;;13.32;7.65;;;;;;;;;;4691700;30;20088;-83
2021/07/19 12:28:00;;;;;;;11.00;7.60;;;;;;;;;;4669182;30;20045;-83
2021/07/19 12:30:26;;;;;;;10.40;6.95;;;;;;;;;;4679301;30;20040;-83
2021/07/19 12:32:52;;;;;;;8.70;6.70;;;;;;;;;;4676437;30;20125;-83
2021/07/19 12:35:23;;;;;;;12.20;7.10;;;;;;;;;;4683012;30;20943;-83
2021/07/19 12:37:57;;;;;;;9.52;7.13;;;;;;;;;;4685832;30;20475;-83
2021/07/19 12:40:25;;;;;;;10.95;7.30;;;;;;;;;;4665674;30;20044;-83
2021/07/19 12:42:51;;;;;;;12.02;7.55;;;;;;;;;;4672414;30;20032;-83
2021/07/19 12:45:17;;;;;;;9.68;7.07;;;;;;;;;;4690341;30;20045;-82
2021/07/19 12:47:43;;;;;;;10.27;7.30;;;;;;;;;;4677237;30;20041;-83
2021/07/19 12:50:09;;;;;;;13.15;7.22;;;;;;;;;;4698581;30;20037;-83
2021/07/19 12:52:35;;;;;;;12.65;7.47;;;;;;;;;;4681992;30;20042;-83
2021/07/19 12:55:04;;;;;;;11.45;7.55;;;;;;;;;;4666271;30;20896;-83
2021/07/19 12:57:32;;;;;;;13.43;7.70;;;;;;;;;;4683130;30;20033;-83
2021/07/19 13:00:01;;;;;;;12.07;7.38;;;;;;;;;;4679121;30;20049;-83
2021/07/19 13:02:26;;;;;;;10.10;7.38;;;;;;;;;;4681913;30;20034;-83
2021/07/19 13:04:53;;;;;;;11.38;7.75;;;;;;;;;;4654346;30;20064;-83
2021/07/19 13:07:32;;;;;;;13.88;8.07;;;;;;;;;;4663942;30;20099;-83
2021/07/19 13:10:05;;;;;;;11.95;8.20;;;;;;;;;;4681012;30;20041;-83
2021/07/19 13:12:31;;;;;;;10.77;7.07;;;;;;;;;;4692990;30;20073;-83
2021/07/19 13:15:03;;;;;;;11.07;7.53;;;;;;;;;;4684356;30;20441;-83
2021/07/19 13:17:34;;;;;;;11.23;7.55;;;;;;;;;;4669387;30;20050;-83
2021/07/19 13:20:06;;;;;;;12.05;7.88;;;;;;;;;;4689224;30;20034;-83
2021/07/19 13:22:40;;;;;;;11.80;7.75;;;;;;;;;;4668058;30;20937;-83
2021/07/19 13:25:24;;;;;;;12.70;7.75;;;;;;;;;;4674855;30;20073;-83
2021/07/19 13:27:50;;;;;;;12.77;7.57;;;;;;;;;;4695829;30;20096;-83
2021/07/19 13:30:18;;;;;;;10.95;7.22;;;;;;;;;;4696363;30;20042;-83
2021/07/19 13:32:45;;;;;;;14.98;8.30;;;;;;;;;;4690365;30;20045;-83
2021/07/19 13:35:12;;;;;;;11.05;7.80;;;;;;;;;;4674042;30;20052;-83
2021/07/19 13:37:47;;;;;;;10.48;6.60;;;;;;;;;;4687152;30;20049;-83
2021/07/19 13:40:22;;;;;;;12.95;7.45;;;;;;;;;;4672117;30;20052;-83
2021/07/19 13:42:50;;;;;;;10.55;6.57;;;;;;;;;;4690511;30;20041;-83
2021/07/19 13:45:23;;;;;;;10.38;7.63;;;;;;;;;;4690128;30;20107;-83
2021/07/19 13:47:52;;;;;;;8.43;6.55;;;;;;;;;;4663524;30;20042;-83
2021/07/19 13:50:18;;;;;;;11.38;7.60;;;;;;;;;;4672495;30;20048;-83
2021/07/19 13:52:43;;;;;;;10.57;7.20;;;;;;;;;;4655977;30;20050;-83
2021/07/19 13:55:09;;;;;;;9.70;7.30;;;;;;;;;;4692362;30;20033;-82
2021/07/19 13:57:35;;;;;;;11.25;7.15;;;;;;;;;;4672663;30;20056;-83
2021/07/19 14:00:00;;;;;;;9.73;6.30;;;;;;;;;;4690677;30;20117;-83
2021/07/19 14:02:26;;;;;;;12.68;7.93;;;;;;;;;;4676720;30;20762;-83
2021/07/19 14:04:52;;;;;;;12.90;8.27;;;;;;;;;;4663948;30;20065;-82
2021/07/19 14:07:17;;;;;;;12.65;8.35;;;;;;;;;;4665468;30;20049;-82
2021/07/19 14:09:43;;;;;;;9.57;7.28;;;;;;;;;;4692214;30;20041;-83
2021/07/19 14:12:10;;;;;;;11.18;7.88;;;;;;;;;;4673095;30;20038;-83
2021/07/19 14:14:36;;;;;;;14.60;7.38;;;;;;;;;;4690618;30;20535;-83
2021/07/19 14:17:01;;;;;;;10.35;7.20;;;;;;;;;;4673886;30;20041;-83
2021/07/19 14:19:27;;;;;;;10.95;7.68;;;;;;;;;;4665794;30;20045;-83
2021/07/19 14:21:53;;;;;;;9.65;6.88;;;;;;;;;;4669998;30;20045;-83
2021/07/19 14:24:19;;;;;;;10.25;7.00;;;;;;;;;;4692203;30;20066;-83
2021/07/19 14:26:45;;;;;;;12.55;6.90;;;;;;;;;;4664558;30;20057;-83
2021/07/19 14:29:11;;;;;;;9.75;6.90;;;;;;;;;;4664615;30;20045;-83
2021/07/19 14:31:37;;;;;;;10.80;7.20;;;;;;;;;;4674827;30;20071;-83
2021/07/19 14:34:03;;;;;;;9.43;6.57;;;;;;;;;;4671784;30;20133;-83
2021/07/19 14:36:29;;;;;;;11.23;6.65;;;;;;;;;;4672662;30;20121;-83
2021/07/19 14:38:54;;;;;;;10.52;6.45;;;;;;;;;;4668494;30;20550;-83
2021/07/19 14:41:20;;;;;;;10.13;6.82;;;;;;;;;;4671877;30;20033;-83
2021/07/19 14:43:45;;;;;;;10.60;6.63;;;;;;;;;;4672897;30;20603;-83